createdAt,value
2022-09-18T00:01:34.081Z,12.00
2022-09-18T00:04:05.639Z,12.00
2022-09-18T00:06:38.438Z,12.00
2022-09-18T00:09:10.471Z,11.30
2022-09-18T00:11:42.104Z,12.10
2022-09-18T00:14:13.418Z,11.30
2022-09-18T00:16:41.588Z,12.10
2022-09-18T00:19:10.281Z,11.30
2022-09-18T00:21:42.795Z,11.00
2022-09-18T00:24:11.211Z,10.60
2022-09-18T00:31:35.974Z,11.30
2022-09-18T00:34:08.769Z,11.70
2022-09-18T00:39:06.240Z,10.80
2022-09-18T00:41:37.705Z,11.40
2022-09-18T00:44:42.279Z,10.60
2022-09-18T00:47:12.720Z,12.20
2022-09-18T00:49:51.403Z,11.20
2022-09-18T00:52:23.943Z,10.50
2022-09-18T00:55:03.486Z,10.60
2022-09-18T00:57:35.018Z,11.20
2022-09-18T01:00:11.959Z,10.60
2022-09-18T01:02:44.957Z,11.60
2022-09-18T01:05:15.172Z,12.50
2022-09-18T01:08:25.228Z,11.80
2022-09-18T01:11:10.336Z,12.30
2022-09-18T01:13:50.816Z,11.20
2022-09-18T01:16:58.582Z,12.10
2022-09-18T01:20:04.243Z,11.20
2022-09-18T01:23:03.939Z,11.60
2022-09-18T01:25:47.140Z,11.10
2022-09-18T01:30:45.951Z,11.30
2022-09-18T01:33:59.313Z,11.10
2022-09-18T01:36:34.400Z,10.90
2022-09-18T01:39:23.302Z,11.80
2022-09-18T01:41:52.841Z,11.10
2022-09-18T01:44:30.728Z,10.50
2022-09-18T01:47:03.112Z,11.40
2022-09-18T01:49:39.831Z,10.90
2022-09-18T01:52:28.732Z,11.10
2022-09-18T01:54:58.878Z,11.10
2022-09-18T01:57:52.458Z,10.60
2022-09-18T02:03:05.652Z,10.70
2022-09-18T02:05:54.462Z,11.10
2022-09-18T02:08:55.573Z,11.50
2022-09-18T02:11:23.852Z,11.00
2022-09-18T02:14:07.903Z,9.70
2022-09-18T02:16:41.629Z,10.80
2022-09-18T02:19:38.988Z,11.60
2022-09-18T02:22:12.994Z,10.90
2022-09-18T02:24:44.599Z,11.20
2022-09-18T02:27:15.630Z,10.70
2022-09-18T02:29:46.541Z,10.90
2022-09-18T02:32:14.813Z,11.30
2022-09-18T02:34:42.393Z,10.80
2022-09-18T02:37:41.594Z,10.70
2022-09-18T02:40:42.503Z,10.40
2022-09-18T02:43:34.570Z,10.50
2022-09-18T02:46:39.620Z,10.20
2022-09-18T02:49:43.107Z,10.30
2022-09-18T02:52:33.200Z,10.20
2022-09-18T02:55:27.919Z,10.70
2022-09-18T02:58:04.980Z,10.20
2022-09-18T03:00:33.532Z,11.30
2022-09-18T03:05:29.598Z,11.10
2022-09-18T03:07:57.422Z,10.90
2022-09-18T03:12:53.437Z,10.20
2022-09-18T03:15:20.517Z,11.00
2022-09-18T03:20:15.139Z,10.50
2022-09-18T03:22:42.144Z,10.80
2022-09-18T03:25:11.751Z,9.10
2022-09-18T03:27:39.277Z,10.60
2022-09-18T03:30:07.426Z,11.00
2022-09-18T03:35:02.377Z,9.50
2022-09-18T03:39:57.287Z,11.30
2022-09-18T03:44:52.560Z,10.80
2022-09-18T03:49:47.515Z,11.10
2022-09-18T03:54:42.129Z,9.90
2022-09-18T03:57:09.465Z,11.10
2022-09-18T03:59:37.003Z,10.40
2022-09-18T04:02:04.302Z,10.20
2022-09-18T04:04:34.754Z,11.00
2022-09-18T04:09:29.842Z,10.40
2022-09-18T04:11:57.076Z,10.10
2022-09-18T04:16:57.897Z,10.90
2022-09-18T04:19:24.909Z,10.60
2022-09-18T04:21:51.998Z,9.40
2022-09-18T04:31:41.878Z,10.60
2022-09-18T04:34:08.997Z,10.30
2022-09-18T04:39:04.483Z,10.80
2022-09-18T04:43:58.988Z,10.60
2022-09-18T04:46:26.580Z,10.60
2022-09-18T04:48:54.239Z,10.20
2022-09-18T04:51:21.645Z,10.30
2022-09-18T04:53:48.825Z,9.50
2022-09-18T04:56:16.542Z,10.90
2022-09-18T04:58:43.764Z,10.60
2022-09-18T05:01:11.350Z,10.00
2022-09-18T05:03:38.798Z,10.20
2022-09-18T05:06:06.858Z,11.10
2022-09-18T05:08:34.853Z,9.50
2022-09-18T05:16:00.148Z,10.80
2022-09-18T05:18:27.628Z,11.00
2022-09-18T05:23:23.069Z,10.30
2022-09-18T05:25:50.158Z,10.10
2022-09-18T05:28:19.686Z,10.40
2022-09-18T05:30:47.344Z,10.50
2022-09-18T05:33:14.516Z,9.80
2022-09-18T05:35:43.388Z,9.60
2022-09-18T05:38:12.636Z,10.80
2022-09-18T05:43:09.061Z,9.90
2022-09-18T05:48:08.056Z,10.40
2022-09-18T05:50:36.845Z,10.30
2022-09-18T05:53:10.704Z,10.00
2022-09-18T05:55:38.376Z,10.60
2022-09-18T05:58:07.989Z,10.20
2022-09-18T06:00:38.507Z,11.00
2022-09-18T06:03:11.324Z,10.40
2022-09-18T06:08:11.020Z,10.50
2022-09-18T06:10:41.167Z,10.60
2022-09-18T06:13:17.052Z,10.50
2022-09-18T06:15:53.477Z,11.60
2022-09-18T06:18:24.113Z,11.00
2022-09-18T06:21:01.611Z,10.50
2022-09-18T06:23:29.777Z,11.30
2022-09-18T06:26:06.479Z,10.70
2022-09-18T06:28:35.138Z,11.10
2022-09-18T06:31:05.044Z,10.60
2022-09-18T06:33:34.126Z,11.30
2022-09-18T06:36:09.796Z,11.50
2022-09-18T06:41:04.581Z,11.10
2022-09-18T06:45:59.367Z,10.60
2022-09-18T06:50:59.161Z,9.90
2022-09-18T06:53:26.808Z,11.90
2022-09-18T06:56:02.100Z,10.10
2022-09-18T06:58:29.774Z,11.30
2022-09-18T07:01:01.130Z,9.90
2022-09-18T07:03:28.410Z,10.10
2022-09-18T07:05:55.872Z,11.70
2022-09-18T07:08:23.072Z,10.10
2022-09-18T07:13:25.547Z,11.10
2022-09-18T07:23:16.053Z,11.00
2022-09-18T07:25:43.465Z,11.50
2022-09-18T07:28:11.788Z,10.70
2022-09-18T07:30:40.447Z,10.60
2022-09-18T07:33:09.823Z,10.70
2022-09-18T07:38:06.707Z,10.40
2022-09-18T07:40:35.251Z,10.50
2022-09-18T07:43:06.184Z,10.50
2022-09-18T07:45:34.140Z,10.70
2022-09-18T07:48:07.142Z,10.30
2022-09-18T07:50:34.474Z,10.50
2022-09-18T07:53:05.486Z,10.30
2022-09-18T07:55:37.452Z,11.10
2022-09-18T07:58:07.267Z,10.20
2022-09-18T08:00:37.308Z,9.80
2022-09-18T08:03:11.892Z,10.50
2022-09-18T08:05:41.029Z,10.50
2022-09-18T08:08:14.754Z,11.00
2022-09-18T08:10:45.842Z,10.00
2022-09-18T08:13:13.683Z,10.20
2022-09-18T08:15:43.212Z,10.00
2022-09-18T08:18:12.311Z,10.20
2022-09-18T08:23:09.587Z,10.20
2022-09-18T08:25:37.759Z,11.10
2022-09-18T08:28:07.939Z,10.50
2022-09-18T08:30:36.410Z,10.80
2022-09-18T08:33:08.076Z,10.70
2022-09-18T08:35:35.609Z,10.10
2022-09-18T08:38:03.825Z,11.80
2022-09-18T08:40:43.645Z,10.90
2022-09-18T08:43:22.225Z,10.80
2022-09-18T08:46:03.174Z,10.70
2022-09-18T08:48:39.691Z,10.90
2022-09-18T08:51:32.225Z,10.30
2022-09-18T08:54:23.454Z,10.60
2022-09-18T08:56:56.287Z,10.70
2022-09-18T08:59:46.430Z,10.30
2022-09-18T09:02:34.540Z,10.90
2022-09-18T09:05:08.437Z,10.40
2022-09-18T09:08:18.445Z,11.30
2022-09-18T09:11:26.677Z,11.50
2022-09-18T09:14:56.513Z,11.10
2022-09-18T09:17:43.245Z,11.00
2022-09-18T09:20:25.895Z,11.10
2022-09-18T09:23:04.750Z,12.00
2022-09-18T09:26:04.114Z,11.50
2022-09-18T09:29:03.860Z,12.40
2022-09-18T09:31:52.254Z,11.90
2022-09-18T09:34:32.846Z,11.60
2022-09-18T09:37:07.423Z,12.90
2022-09-18T09:40:05.562Z,14.60
2022-09-18T09:42:52.605Z,13.40
2022-09-18T09:48:33.618Z,14.00
2022-09-18T09:51:20.192Z,14.10
2022-09-18T09:57:13.124Z,13.80
2022-09-18T09:59:58.063Z,13.20
2022-09-18T10:03:02.800Z,13.10
2022-09-18T10:05:53.627Z,12.50
2022-09-18T10:08:49.765Z,12.50
2022-09-18T10:11:18.304Z,12.50
2022-09-18T10:14:04.262Z,12.30
2022-09-18T10:16:42.878Z,12.80
2022-09-18T10:19:20.694Z,12.00
2022-09-18T10:21:53.051Z,10.90
2022-09-18T10:24:48.593Z,13.00
2022-09-18T10:29:44.880Z,11.20
2022-09-18T10:32:13.892Z,12.30
2022-09-18T10:34:49.845Z,11.80
2022-09-18T10:37:18.287Z,11.60
2022-09-18T10:39:59.988Z,11.80
2022-09-18T10:42:34.383Z,11.90
2022-09-18T10:45:21.340Z,12.40
2022-09-18T10:47:50.100Z,11.90
2022-09-18T10:50:19.802Z,12.10
2022-09-18T10:52:49.141Z,12.10
2022-09-18T10:55:29.350Z,12.50
2022-09-18T10:58:14.920Z,13.30
2022-09-18T11:01:00.309Z,11.90
2022-09-18T11:03:49.736Z,12.50
2022-09-18T11:06:24.112Z,11.40
2022-09-18T11:08:56.916Z,11.80
2022-09-18T11:11:37.442Z,11.70
2022-09-18T11:14:27.334Z,13.20
2022-09-18T11:17:02.301Z,12.40
2022-09-18T11:19:40.931Z,11.40
2022-09-18T11:22:43.011Z,11.30
2022-09-18T11:25:29.111Z,11.60
2022-09-18T11:28:00.103Z,11.20
2022-09-18T11:30:32.146Z,11.30
2022-09-18T11:35:58.131Z,13.10
2022-09-18T11:38:27.276Z,11.70
2022-09-18T11:40:58.750Z,11.10
2022-09-18T11:43:39.114Z,12.70
2022-09-18T11:46:32.135Z,12.90
2022-09-18T11:49:19.968Z,12.20
2022-09-18T11:52:03.204Z,12.30
2022-09-18T11:54:42.403Z,12.60
2022-09-18T11:57:53.641Z,12.50
2022-09-18T12:00:24.313Z,13.00
2022-09-18T12:05:40.155Z,12.40
2022-09-18T12:08:14.220Z,12.80
2022-09-18T12:11:14.614Z,12.30
2022-09-18T12:13:49.182Z,12.60
2022-09-18T12:17:01.108Z,12.10
2022-09-18T12:19:37.258Z,12.20
2022-09-18T12:22:23.973Z,12.90
2022-09-18T12:27:46.255Z,12.40
2022-09-18T12:30:24.581Z,12.10
2022-09-18T12:33:40.495Z,12.80
2022-09-18T12:36:52.526Z,13.20
2022-09-18T12:39:53.116Z,12.20
2022-09-18T12:42:47.883Z,12.40
2022-09-18T12:45:30.282Z,12.40
2022-09-18T12:48:03.514Z,12.50
2022-09-18T12:51:11.870Z,13.20
2022-09-18T12:54:12.253Z,12.50
2022-09-18T12:57:25.421Z,13.00
2022-09-18T13:00:11.572Z,13.20
2022-09-18T13:03:18.987Z,12.20
2022-09-18T13:05:58.049Z,12.00
2022-09-18T13:08:34.995Z,12.70
2022-09-18T13:11:20.259Z,11.10
2022-09-18T13:13:59.919Z,12.00
2022-09-18T13:16:41.213Z,11.80
2022-09-18T13:19:19.065Z,13.20
2022-09-18T13:21:48.096Z,12.10
2022-09-18T13:24:28.606Z,13.00
2022-09-18T13:26:57.597Z,12.10
2022-09-18T13:29:53.098Z,12.90
2022-09-18T13:32:36.566Z,12.30
2022-09-18T13:35:12.928Z,12.20
2022-09-18T13:37:41.771Z,12.60
2022-09-18T13:40:33.423Z,12.40
2022-09-18T13:43:38.948Z,13.10
2022-09-18T13:46:07.598Z,12.90
2022-09-18T13:48:48.978Z,13.00
2022-09-18T13:51:37.517Z,12.90
2022-09-18T13:54:29.281Z,12.60
2022-09-18T13:57:10.728Z,12.50
2022-09-18T13:59:48.322Z,12.80
2022-09-18T14:02:40.762Z,12.70
2022-09-18T14:05:10.663Z,12.70
2022-09-18T14:07:37.749Z,12.30
2022-09-18T14:10:31.191Z,13.80
2022-09-18T14:13:35.875Z,14.40
2022-09-18T14:16:24.180Z,12.90
2022-09-18T14:19:06.247Z,12.60
2022-09-18T14:21:43.035Z,12.90
2022-09-18T14:24:55.878Z,13.80
2022-09-18T14:27:58.326Z,13.90
2022-09-18T14:30:29.468Z,12.50
2022-09-18T14:33:21.005Z,12.40
2022-09-18T14:36:11.820Z,11.90
2022-09-18T14:41:37.165Z,12.00
2022-09-18T14:46:34.166Z,12.10
2022-09-18T14:49:03.315Z,12.20
2022-09-18T14:51:44.809Z,12.80
2022-09-18T14:54:24.892Z,12.70
2022-09-18T14:56:59.358Z,12.50
2022-09-18T15:02:20.745Z,12.60
2022-09-18T15:04:49.157Z,12.90
2022-09-18T15:07:22.497Z,12.70
2022-09-18T15:09:53.955Z,13.30
2022-09-18T15:12:27.527Z,13.70
2022-09-18T15:14:54.697Z,12.80
2022-09-18T15:17:28.387Z,12.70
2022-09-18T15:20:03.470Z,12.60
2022-09-18T15:22:31.655Z,11.20
2022-09-18T15:25:01.914Z,11.30
2022-09-18T15:27:31.685Z,11.70
2022-09-18T15:32:42.253Z,12.10
2022-09-18T15:35:24.431Z,10.90
2022-09-18T15:38:00.879Z,12.30
2022-09-18T15:40:38.522Z,11.60
2022-09-18T15:43:32.429Z,11.70
2022-09-18T15:46:25.512Z,12.00
2022-09-18T15:51:25.566Z,11.40
2022-09-18T15:54:27.158Z,12.20
2022-09-18T15:57:01.025Z,12.00
2022-09-18T15:59:34.451Z,11.50
2022-09-18T16:02:18.431Z,11.60
2022-09-18T16:07:27.142Z,12.00
2022-09-18T16:09:55.119Z,12.20
2022-09-18T16:12:31.204Z,11.50
2022-09-18T16:15:23.806Z,10.90
2022-09-18T16:18:29.313Z,10.50
2022-09-18T16:23:50.957Z,10.80
2022-09-18T16:26:36.744Z,10.80
2022-09-18T16:29:23.398Z,11.00
2022-09-18T16:31:51.197Z,11.90
2022-09-18T16:34:28.118Z,10.90
2022-09-18T16:36:56.361Z,10.80
2022-09-18T16:39:26.740Z,10.20
2022-09-18T16:41:55.075Z,10.60
2022-09-18T16:44:27.318Z,10.40
2022-09-18T16:47:01.776Z,10.50
2022-09-18T16:49:35.007Z,10.10
2022-09-18T16:52:03.145Z,10.90
2022-09-18T16:57:18.833Z,10.60
2022-09-18T16:59:46.891Z,10.00
2022-09-18T17:02:18.584Z,9.20
2022-09-18T17:04:46.422Z,9.70
2022-09-18T17:07:14.042Z,10.70
2022-09-18T17:14:38.066Z,10.70
2022-09-18T17:19:34.310Z,8.90
2022-09-18T17:22:02.979Z,10.60
2022-09-18T17:24:31.159Z,9.40
2022-09-18T17:27:00.153Z,8.40
2022-09-18T17:36:53.610Z,9.40
2022-09-18T17:41:50.752Z,9.00
2022-09-18T17:44:18.497Z,9.00
2022-09-18T17:49:22.186Z,9.00
2022-09-18T17:59:15.926Z,8.70
2022-09-18T18:01:47.025Z,9.70
2022-09-18T18:04:16.671Z,9.70
2022-09-18T18:06:50.282Z,9.10
2022-09-18T18:09:18.711Z,10.30
2022-09-18T18:21:53.353Z,9.60
2022-09-18T18:24:22.089Z,9.20
2022-09-18T18:31:58.680Z,9.30
2022-09-18T18:34:27.482Z,10.20
2022-09-18T18:39:25.944Z,9.90
2022-09-18T18:44:23.739Z,9.90
2022-09-18T18:51:58.748Z,9.70
2022-09-18T18:56:55.655Z,9.70
2022-09-18T18:59:31.233Z,8.90
2022-09-18T19:02:03.762Z,10.40
2022-09-18T19:04:33.941Z,8.60
2022-09-18T19:07:01.946Z,10.10
2022-09-18T19:09:31.085Z,9.20
2022-09-18T19:14:34.020Z,8.70
2022-09-18T19:17:08.171Z,9.10
2022-09-18T19:19:36.386Z,10.20
2022-09-18T19:22:04.594Z,8.50
2022-09-18T19:29:31.312Z,8.20
2022-09-18T19:31:59.997Z,8.70
2022-09-18T19:34:27.876Z,10.00
2022-09-18T19:36:57.082Z,8.80
2022-09-18T19:39:26.819Z,10.10
2022-09-18T19:42:12.521Z,10.20
2022-09-18T19:44:52.581Z,9.30
2022-09-18T19:47:46.582Z,9.30
2022-09-18T19:50:38.049Z,9.30
2022-09-18T19:53:05.462Z,9.30
2022-09-18T19:55:32.863Z,9.00
2022-09-18T20:02:59.405Z,9.80
2022-09-18T20:07:54.660Z,9.60
2022-09-18T20:10:23.559Z,9.60
2022-09-18T20:12:52.690Z,9.70
2022-09-18T20:25:12.412Z,10.20
2022-09-18T20:27:42.156Z,9.30
2022-09-18T20:30:15.009Z,9.50
2022-09-18T20:32:42.469Z,10.80
2022-09-18T20:35:10.538Z,10.20
2022-09-18T20:37:37.975Z,9.30
2022-09-18T20:40:12.143Z,9.50
2022-09-18T20:42:39.594Z,8.80
2022-09-18T20:45:07.439Z,8.90
2022-09-18T20:47:36.908Z,9.80
2022-09-18T20:50:14.762Z,9.50
2022-09-18T20:52:43.676Z,9.70
2022-09-18T20:55:15.832Z,9.70
2022-09-18T20:57:46.704Z,10.50
2022-09-18T21:00:16.491Z,9.40
2022-09-18T21:02:44.308Z,9.50
2022-09-18T21:05:14.753Z,9.40
2022-09-18T21:07:46.634Z,9.40
2022-09-18T21:10:14.848Z,9.70
2022-09-18T21:12:41.945Z,9.10
2022-09-18T21:15:15.644Z,8.80
2022-09-18T21:17:43.635Z,9.60
2022-09-18T21:20:12.291Z,9.10
2022-09-18T21:22:58.136Z,10.50
2022-09-18T21:25:25.613Z,10.40
2022-09-18T21:27:55.721Z,10.50
2022-09-18T21:30:26.761Z,9.50
2022-09-18T21:32:55.862Z,10.30
2022-09-18T21:37:52.078Z,9.50
2022-09-18T21:40:19.313Z,9.50
2022-09-18T21:45:20.690Z,9.90
2022-09-18T21:47:50.474Z,9.70
2022-09-18T21:50:17.863Z,8.90
2022-09-18T21:55:12.504Z,9.40
2022-09-18T21:57:39.746Z,10.70
2022-09-18T22:00:09.568Z,9.80
2022-09-18T22:05:11.761Z,10.80
2022-09-18T22:07:38.937Z,10.50
2022-09-18T22:10:07.518Z,9.40
2022-09-18T22:15:06.668Z,10.80
2022-09-18T22:20:01.294Z,9.60
2022-09-18T22:34:46.990Z,10.40
2022-09-18T22:42:10.108Z,9.50
2022-09-18T22:44:38.236Z,9.80
2022-09-18T22:47:05.620Z,9.70
2022-09-18T22:49:32.715Z,9.40
2022-09-18T22:54:29.831Z,9.80
2022-09-18T22:56:57.016Z,10.00
2022-09-18T22:59:26.765Z,9.60
2022-09-18T23:02:11.951Z,9.80
2022-09-18T23:04:40.406Z,9.60
2022-09-18T23:07:07.486Z,9.40
2022-09-18T23:12:02.533Z,11.00
2022-09-18T23:14:31.587Z,9.40
2022-09-18T23:17:00.778Z,9.70
2022-09-18T23:19:33.232Z,9.30
2022-09-18T23:26:58.453Z,9.90
2022-09-18T23:29:28.017Z,9.60
2022-09-18T23:31:58.962Z,9.20
2022-09-18T23:34:31.989Z,9.80
2022-09-18T23:39:33.854Z,9.60
2022-09-18T23:42:03.224Z,9.60
2022-09-18T23:44:32.181Z,9.40
2022-09-18T23:51:57.220Z,9.50
2022-09-18T23:54:28.538Z,9.50
2022-09-18T23:56:55.774Z,10.10
2022-09-18T23:59:24.766Z,9.60
